sensor_id;sensor_type;location;lat;lon;timestamp;pressure;altitude;pressure_sealevel;temperature;humidity
20119;BME280;10220;42.716;23.306;2023-03-20T00:00:46;95608.75;;;8.99;100.00
20119;BME280;10220;42.716;23.306;2023-03-20T00:03:13;95589.53;;;8.38;100.00
20119;BME280;10220;42.716;23.306;2023-03-20T00:05:39;95603.44;;;8.37;100.00
20119;BME280;10220;42.716;23.306;2023-03-20T00:08:05;95603.25;;;9.23;100.00
20119;BME280;10220;42.716;23.306;2023-03-20T00:10:36;95618.53;;;8.83;100.00
20119;BME280;10220;42.716;23.306;2023-03-20T00:13:04;95605.78;;;7.95;100.00
20119;BME280;10220;42.716;23.306;2023-03-20T00:15:38;95597.97;;;8.61;100.00
20119;BME280;10220;42.716;23.306;2023-03-20T00:18:12;95594.25;;;8.49;100.00
20119;BME280;10220;42.716;23.306;2023-03-20T00:20:38;95589.81;;;8.28;100.00
20119;BME280;10220;42.716;23.306;2023-03-20T00:23:04;95581.19;;;8.85;100.00
20119;BME280;10220;42.716;23.306;2023-03-20T00:25:29;95583.06;;;7.76;100.00
20119;BME280;10220;42.716;23.306;2023-03-20T00:27:56;95588.81;;;8.29;100.00
20119;BME280;10220;42.716;23.306;2023-03-20T00:30:27;95598.13;;;9.09;100.00
20119;BME280;10220;42.716;23.306;2023-03-20T00:32:55;95596.06;;;9.39;100.00
20119;BME280;10220;42.716;23.306;2023-03-20T00:37:51;95565.22;;;8.96;100.00
20119;BME280;10220;42.716;23.306;2023-03-20T00:40:17;95591.88;;;8.82;100.00
20119;BME280;10220;42.716;23.306;2023-03-20T00:42:49;95570.72;;;8.58;100.00
20119;BME280;10220;42.716;23.306;2023-03-20T00:45:19;95588.50;;;8.82;100.00
20119;BME280;10220;42.716;23.306;2023-03-20T00:47:48;95583.81;;;8.57;100.00
20119;BME280;10220;42.716;23.306;2023-03-20T00:50:23;95589.50;;;8.67;100.00
20119;BME280;10220;42.716;23.306;2023-03-20T00:52:50;95589.66;;;7.79;100.00
20119;BME280;10220;42.716;23.306;2023-03-20T00:55:17;95573.09;;;7.59;100.00
20119;BME280;10220;42.716;23.306;2023-03-20T00:58:09;95587.03;;;7.64;100.00
20119;BME280;10220;42.716;23.306;2023-03-20T01:00:43;95573.91;;;8.25;100.00
20119;BME280;10220;42.716;23.306;2023-03-20T01:03:17;95589.78;;;8.72;100.00
20119;BME280;10220;42.716;23.306;2023-03-20T01:05:45;95575.41;;;8.83;100.00
20119;BME280;10220;42.716;23.306;2023-03-20T01:08:28;95575.69;;;9.09;100.00
20119;BME280;10220;42.716;23.306;2023-03-20T01:10:54;95563.25;;;9.40;100.00
20119;BME280;10220;42.716;23.306;2023-03-20T01:15:49;95560.06;;;9.38;100.00
20119;BME280;10220;42.716;23.306;2023-03-20T01:18:17;95564.72;;;9.76;100.00
20119;BME280;10220;42.716;23.306;2023-03-20T01:20:43;95561.09;;;9.02;100.00
20119;BME280;10220;42.716;23.306;2023-03-20T01:23:09;95568.00;;;9.36;100.00
20119;BME280;10220;42.716;23.306;2023-03-20T01:25:35;95563.38;;;9.11;100.00
20119;BME280;10220;42.716;23.306;2023-03-20T01:28:02;95565.75;;;8.57;100.00
20119;BME280;10220;42.716;23.306;2023-03-20T01:30:30;95548.19;;;9.23;100.00
20119;BME280;10220;42.716;23.306;2023-03-20T01:33:00;95566.97;;;9.31;100.00
20119;BME280;10220;42.716;23.306;2023-03-20T01:35:27;95540.88;;;9.05;100.00
20119;BME280;10220;42.716;23.306;2023-03-20T01:37:54;95560.63;;;9.61;100.00
20119;BME280;10220;42.716;23.306;2023-03-20T01:40:29;95569.50;;;9.73;100.00
20119;BME280;10220;42.716;23.306;2023-03-20T01:42:57;95577.06;;;9.26;100.00
20119;BME280;10220;42.716;23.306;2023-03-20T01:45:27;95582.50;;;9.58;100.00
20119;BME280;10220;42.716;23.306;2023-03-20T01:47:53;95564.19;;;10.08;100.00
20119;BME280;10220;42.716;23.306;2023-03-20T01:50:39;95557.09;;;11.22;100.00
20119;BME280;10220;42.716;23.306;2023-03-20T01:53:19;95562.34;;;11.87;100.00
20119;BME280;10220;42.716;23.306;2023-03-20T01:55:47;95578.88;;;12.31;97.71
20119;BME280;10220;42.716;23.306;2023-03-20T01:58:22;95560.53;;;12.76;94.32
20119;BME280;10220;42.716;23.306;2023-03-20T02:00:49;95564.69;;;12.33;76.62
20119;BME280;10220;42.716;23.306;2023-03-20T02:03:15;95549.53;;;11.34;85.65
20119;BME280;10220;42.716;23.306;2023-03-20T02:05:42;95550.09;;;11.23;93.62
20119;BME280;10220;42.716;23.306;2023-03-20T02:08:24;95557.34;;;11.92;92.27
20119;BME280;10220;42.716;23.306;2023-03-20T02:10:51;95556.13;;;11.81;86.89
20119;BME280;10220;42.716;23.306;2023-03-20T02:13:18;95561.88;;;11.25;92.87
20119;BME280;10220;42.716;23.306;2023-03-20T02:16:06;95559.97;;;11.79;100.00
20119;BME280;10220;42.716;23.306;2023-03-20T02:18:33;95559.44;;;10.52;100.00
20119;BME280;10220;42.716;23.306;2023-03-20T02:34:51;95569.88;;;12.27;100.00
20119;BME280;10220;42.716;23.306;2023-03-20T02:43:04;95572.84;;;9.04;100.00
20119;BME280;10220;42.716;23.306;2023-03-20T02:45:58;95555.19;;;9.49;100.00
20119;BME280;10220;42.716;23.306;2023-03-20T02:48:40;95549.19;;;10.31;100.00
20119;BME280;10220;42.716;23.306;2023-03-20T02:53:46;95549.94;;;10.58;100.00
20119;BME280;10220;42.716;23.306;2023-03-20T03:02:03;95567.53;;;7.48;100.00
20119;BME280;10220;42.716;23.306;2023-03-20T03:04:34;95563.09;;;6.44;100.00
20119;BME280;10220;42.716;23.306;2023-03-20T03:07:02;95574.97;;;6.07;100.00
20119;BME280;10220;42.716;23.306;2023-03-20T03:09:35;95575.22;;;5.50;100.00
20119;BME280;10220;42.716;23.306;2023-03-20T03:12:13;95566.56;;;4.96;100.00
20119;BME280;10220;42.716;23.306;2023-03-20T03:14:42;95559.50;;;5.53;100.00
20119;BME280;10220;42.716;23.306;2023-03-20T03:17:10;95567.03;;;5.63;100.00
20119;BME280;10220;42.716;23.306;2023-03-20T03:19:39;95549.53;;;5.42;100.00
20119;BME280;10220;42.716;23.306;2023-03-20T03:22:07;95554.03;;;5.48;100.00
20119;BME280;10220;42.716;23.306;2023-03-20T03:24:35;95559.66;;;5.44;100.00
20119;BME280;10220;42.716;23.306;2023-03-20T03:27:06;95569.78;;;5.45;100.00
20119;BME280;10220;42.716;23.306;2023-03-20T03:29:35;95568.34;;;5.43;100.00
20119;BME280;10220;42.716;23.306;2023-03-20T03:32:05;95572.97;;;5.55;100.00
20119;BME280;10220;42.716;23.306;2023-03-20T03:34:31;95567.97;;;5.70;100.00
20119;BME280;10220;42.716;23.306;2023-03-20T03:37:13;95560.94;;;5.48;100.00
20119;BME280;10220;42.716;23.306;2023-03-20T03:39:52;95570.72;;;4.81;100.00
20119;BME280;10220;42.716;23.306;2023-03-20T03:47:46;95569.66;;;4.42;100.00
20119;BME280;10220;42.716;23.306;2023-03-20T03:50:40;95557.69;;;4.59;100.00
20119;BME280;10220;42.716;23.306;2023-03-20T03:53:14;95551.03;;;4.32;100.00
20119;BME280;10220;42.716;23.306;2023-03-20T03:55:53;95554.13;;;4.52;100.00
20119;BME280;10220;42.716;23.306;2023-03-20T03:58:48;95558.41;;;4.27;100.00
20119;BME280;10220;42.716;23.306;2023-03-20T04:01:16;95553.41;;;4.26;100.00
20119;BME280;10220;42.716;23.306;2023-03-20T04:03:48;95555.66;;;4.21;100.00
20119;BME280;10220;42.716;23.306;2023-03-20T04:06:15;95548.19;;;4.43;100.00
20119;BME280;10220;42.716;23.306;2023-03-20T04:08:41;95550.00;;;4.66;100.00
20119;BME280;10220;42.716;23.306;2023-03-20T04:11:22;95537.19;;;4.66;100.00
20119;BME280;10220;42.716;23.306;2023-03-20T04:13:49;95552.09;;;4.71;100.00
20119;BME280;10220;42.716;23.306;2023-03-20T04:16:16;95550.47;;;4.54;100.00
20119;BME280;10220;42.716;23.306;2023-03-20T04:18:43;95531.09;;;4.67;100.00
20119;BME280;10220;42.716;23.306;2023-03-20T04:21:09;95515.28;;;4.23;100.00
20119;BME280;10220;42.716;23.306;2023-03-20T04:23:35;95519.50;;;4.48;100.00
20119;BME280;10220;42.716;23.306;2023-03-20T04:26:01;95529.19;;;4.93;100.00
20119;BME280;10220;42.716;23.306;2023-03-20T04:28:27;95535.47;;;5.07;100.00
20119;BME280;10220;42.716;23.306;2023-03-20T04:30:56;95538.66;;;5.17;100.00
20119;BME280;10220;42.716;23.306;2023-03-20T04:33:22;95511.41;;;5.16;100.00
20119;BME280;10220;42.716;23.306;2023-03-20T04:35:48;95542.66;;;5.43;100.00
20119;BME280;10220;42.716;23.306;2023-03-20T04:38:14;95544.09;;;5.37;100.00
20119;BME280;10220;42.716;23.306;2023-03-20T04:40:39;95547.00;;;5.34;100.00
20119;BME280;10220;42.716;23.306;2023-03-20T04:43:04;95556.47;;;5.34;100.00
20119;BME280;10220;42.716;23.306;2023-03-20T04:45:30;95555.50;;;5.51;100.00
20119;BME280;10220;42.716;23.306;2023-03-20T04:47:55;95580.88;;;4.41;100.00
20119;BME280;10220;42.716;23.306;2023-03-20T04:50:21;95579.34;;;4.72;100.00
20119;BME280;10220;42.716;23.306;2023-03-20T04:52:46;95566.28;;;4.34;100.00
20119;BME280;10220;42.716;23.306;2023-03-20T04:55:12;95570.34;;;4.52;100.00
20119;BME280;10220;42.716;23.306;2023-03-20T04:57:37;95573.69;;;4.45;100.00
20119;BME280;10220;42.716;23.306;2023-03-20T05:00:03;95578.84;;;4.61;100.00
20119;BME280;10220;42.716;23.306;2023-03-20T05:02:29;95568.44;;;4.70;100.00
20119;BME280;10220;42.716;23.306;2023-03-20T05:04:55;95565.25;;;4.76;100.00
20119;BME280;10220;42.716;23.306;2023-03-20T05:07:20;95571.69;;;4.88;100.00
20119;BME280;10220;42.716;23.306;2023-03-20T05:09:46;95573.78;;;5.32;100.00
20119;BME280;10220;42.716;23.306;2023-03-20T05:12:12;95575.22;;;5.42;100.00
20119;BME280;10220;42.716;23.306;2023-03-20T05:14:37;95571.69;;;5.51;100.00
20119;BME280;10220;42.716;23.306;2023-03-20T05:17:03;95580.84;;;5.54;100.00
20119;BME280;10220;42.716;23.306;2023-03-20T05:19:28;95584.34;;;5.69;100.00
20119;BME280;10220;42.716;23.306;2023-03-20T05:21:54;95594.34;;;5.64;100.00
20119;BME280;10220;42.716;23.306;2023-03-20T05:24:20;95596.22;;;5.70;100.00
20119;BME280;10220;42.716;23.306;2023-03-20T05:26:45;95592.22;;;5.75;100.00
20119;BME280;10220;42.716;23.306;2023-03-20T05:29:11;95586.47;;;5.49;100.00
20119;BME280;10220;42.716;23.306;2023-03-20T05:31:36;95573.09;;;5.85;100.00
20119;BME280;10220;42.716;23.306;2023-03-20T05:34:02;95586.38;;;6.05;100.00
20119;BME280;10220;42.716;23.306;2023-03-20T05:36:27;95591.28;;;6.30;100.00
20119;BME280;10220;42.716;23.306;2023-03-20T05:38:53;95596.00;;;6.57;100.00
20119;BME280;10220;42.716;23.306;2023-03-20T05:41:18;95601.41;;;6.70;100.00
20119;BME280;10220;42.716;23.306;2023-03-20T05:43:43;95590.72;;;6.50;100.00
20119;BME280;10220;42.716;23.306;2023-03-20T05:46:09;95604.94;;;6.99;100.00
20119;BME280;10220;42.716;23.306;2023-03-20T05:48:35;95571.66;;;6.98;100.00
20119;BME280;10220;42.716;23.306;2023-03-20T05:51:01;95592.31;;;7.12;100.00
20119;BME280;10220;42.716;23.306;2023-03-20T05:53:26;95588.06;;;7.19;100.00
20119;BME280;10220;42.716;23.306;2023-03-20T05:55:52;95573.38;;;7.27;100.00
20119;BME280;10220;42.716;23.306;2023-03-20T05:58:17;95616.28;;;7.35;100.00
20119;BME280;10220;42.716;23.306;2023-03-20T06:00:43;95573.50;;;6.81;100.00
20119;BME280;10220;42.716;23.306;2023-03-20T06:03:08;95601.13;;;7.17;100.00
20119;BME280;10220;42.716;23.306;2023-03-20T06:05:34;95593.84;;;7.43;100.00
20119;BME280;10220;42.716;23.306;2023-03-20T06:08:00;95594.50;;;7.59;100.00
20119;BME280;10220;42.716;23.306;2023-03-20T06:10:26;95589.16;;;7.98;100.00
20119;BME280;10220;42.716;23.306;2023-03-20T06:12:52;95592.47;;;8.20;100.00
20119;BME280;10220;42.716;23.306;2023-03-20T06:15:18;95577.72;;;8.29;100.00
20119;BME280;10220;42.716;23.306;2023-03-20T06:17:43;95599.66;;;8.68;100.00
20119;BME280;10220;42.716;23.306;2023-03-20T06:20:09;95594.94;;;9.07;100.00
20119;BME280;10220;42.716;23.306;2023-03-20T06:22:35;95587.91;;;9.22;99.75
20119;BME280;10220;42.716;23.306;2023-03-20T06:25:01;95586.84;;;8.95;98.03
20119;BME280;10220;42.716;23.306;2023-03-20T06:27:26;95589.88;;;8.64;100.00
20119;BME280;10220;42.716;23.306;2023-03-20T06:29:52;95602.91;;;8.56;100.00
20119;BME280;10220;42.716;23.306;2023-03-20T06:32:17;95603.66;;;8.71;100.00
20119;BME280;10220;42.716;23.306;2023-03-20T06:34:43;95577.53;;;8.45;100.00
20119;BME280;10220;42.716;23.306;2023-03-20T06:37:08;95606.06;;;9.07;100.00
20119;BME280;10220;42.716;23.306;2023-03-20T06:39:34;95598.63;;;9.19;98.86
20119;BME280;10220;42.716;23.306;2023-03-20T06:42:01;95603.31;;;9.30;96.00
20119;BME280;10220;42.716;23.306;2023-03-20T06:44:26;95594.94;;;9.07;95.52
20119;BME280;10220;42.716;23.306;2023-03-20T06:46:52;95601.16;;;8.77;100.00
20119;BME280;10220;42.716;23.306;2023-03-20T06:49:17;95590.22;;;9.31;97.64
20119;BME280;10220;42.716;23.306;2023-03-20T06:51:43;95600.19;;;9.55;96.73
20119;BME280;10220;42.716;23.306;2023-03-20T06:54:09;95554.03;;;9.10;96.23
20119;BME280;10220;42.716;23.306;2023-03-20T06:56:35;95591.00;;;9.32;95.77
20119;BME280;10220;42.716;23.306;2023-03-20T06:59:00;95583.31;;;8.96;97.78
20119;BME280;10220;42.716;23.306;2023-03-20T07:01:26;95596.22;;;8.47;100.00
20119;BME280;10220;42.716;23.306;2023-03-20T07:03:51;95594.72;;;8.38;100.00
20119;BME280;10220;42.716;23.306;2023-03-20T07:06:17;95579.19;;;8.67;100.00
20119;BME280;10220;42.716;23.306;2023-03-20T07:08:44;95587.06;;;9.56;100.00
20119;BME280;10220;42.716;23.306;2023-03-20T07:11:10;95583.28;;;9.80;100.00
20119;BME280;10220;42.716;23.306;2023-03-20T07:13:37;95565.63;;;10.10;96.56
20119;BME280;10220;42.716;23.306;2023-03-20T07:16:03;95579.56;;;10.50;92.65
20119;BME280;10220;42.716;23.306;2023-03-20T07:18:28;95563.50;;;10.27;92.30
20119;BME280;10220;42.716;23.306;2023-03-20T07:20:59;95564.00;;;9.82;92.63
20119;BME280;10220;42.716;23.306;2023-03-20T07:23:27;95568.63;;;10.20;91.77
20119;BME280;10220;42.716;23.306;2023-03-20T07:25:52;95570.94;;;10.36;91.09
20119;BME280;10220;42.716;23.306;2023-03-20T07:28:17;95563.69;;;10.65;91.76
20119;BME280;10220;42.716;23.306;2023-03-20T07:30:43;95565.06;;;11.21;89.55
20119;BME280;10220;42.716;23.306;2023-03-20T07:33:08;95569.44;;;11.08;86.96
20119;BME280;10220;42.716;23.306;2023-03-20T07:35:34;95553.72;;;11.28;83.65
20119;BME280;10220;42.716;23.306;2023-03-20T07:38:00;95578.41;;;11.12;82.32
20119;BME280;10220;42.716;23.306;2023-03-20T07:40:25;95563.66;;;11.12;84.41
20119;BME280;10220;42.716;23.306;2023-03-20T07:42:51;95557.31;;;11.47;83.05
20119;BME280;10220;42.716;23.306;2023-03-20T07:45:16;95563.34;;;11.54;82.56
20119;BME280;10220;42.716;23.306;2023-03-20T07:47:43;95587.47;;;11.54;79.83
20119;BME280;10220;42.716;23.306;2023-03-20T07:50:10;95569.94;;;11.95;81.17
20119;BME280;10220;42.716;23.306;2023-03-20T07:52:35;95586.09;;;11.65;80.54
20119;BME280;10220;42.716;23.306;2023-03-20T07:55:00;95578.47;;;12.21;80.83
20119;BME280;10220;42.716;23.306;2023-03-20T07:57:26;95561.28;;;12.27;79.14
20119;BME280;10220;42.716;23.306;2023-03-20T07:59:51;95567.81;;;12.55;74.98
20119;BME280;10220;42.716;23.306;2023-03-20T08:02:17;95562.66;;;12.35;74.10
20119;BME280;10220;42.716;23.306;2023-03-20T08:04:43;95577.06;;;12.25;74.24
20119;BME280;10220;42.716;23.306;2023-03-20T08:07:09;95580.88;;;12.10;76.49
20119;BME280;10220;42.716;23.306;2023-03-20T08:09:35;95564.53;;;11.51;77.30
20119;BME280;10220;42.716;23.306;2023-03-20T08:12:00;95566.13;;;11.97;79.48
20119;BME280;10220;42.716;23.306;2023-03-20T08:14:26;95573.59;;;12.57;73.22
20119;BME280;10220;42.716;23.306;2023-03-20T08:16:52;95558.19;;;12.62;71.40
20119;BME280;10220;42.716;23.306;2023-03-20T08:19:17;95565.84;;;13.00;69.83
20119;BME280;10220;42.716;23.306;2023-03-20T08:21:43;95570.78;;;13.15;68.28
20119;BME280;10220;42.716;23.306;2023-03-20T08:24:08;95536.84;;;12.53;70.65
20119;BME280;10220;42.716;23.306;2023-03-20T08:26:34;95567.63;;;13.06;69.44
20119;BME280;10220;42.716;23.306;2023-03-20T08:28:59;95566.16;;;13.78;67.57
20119;BME280;10220;42.716;23.306;2023-03-20T08:31:25;95550.41;;;13.91;62.01
20119;BME280;10220;42.716;23.306;2023-03-20T08:33:50;95556.50;;;14.09;61.27
20119;BME280;10220;42.716;23.306;2023-03-20T08:36:16;95562.16;;;14.00;59.89
20119;BME280;10220;42.716;23.306;2023-03-20T08:38:44;95551.53;;;13.22;65.01
20119;BME280;10220;42.716;23.306;2023-03-20T08:41:10;95574.44;;;13.38;64.39
20119;BME280;10220;42.716;23.306;2023-03-20T08:43:36;95575.53;;;13.55;63.23
20119;BME280;10220;42.716;23.306;2023-03-20T08:46:02;95552.97;;;13.98;61.64
20119;BME280;10220;42.716;23.306;2023-03-20T08:48:27;95544.88;;;14.30;60.42
20119;BME280;10220;42.716;23.306;2023-03-20T08:50:53;95557.84;;;13.88;60.56
20119;BME280;10220;42.716;23.306;2023-03-20T08:53:18;95554.69;;;14.28;59.22
20119;BME280;10220;42.716;23.306;2023-03-20T08:55:48;95553.97;;;15.10;56.61
20119;BME280;10220;42.716;23.306;2023-03-20T08:58:14;95557.75;;;14.61;55.59
20119;BME280;10220;42.716;23.306;2023-03-20T09:00:40;95549.81;;;14.56;58.55
20119;BME280;10220;42.716;23.306;2023-03-20T09:03:06;95540.72;;;14.22;54.58
20119;BME280;10220;42.716;23.306;2023-03-20T09:05:32;95551.50;;;14.08;56.71
20119;BME280;10220;42.716;23.306;2023-03-20T09:08:00;95539.53;;;14.43;56.96
20119;BME280;10220;42.716;23.306;2023-03-20T09:10:26;95536.16;;;15.19;54.50
20119;BME280;10220;42.716;23.306;2023-03-20T09:12:51;95546.28;;;15.44;52.17
20119;BME280;10220;42.716;23.306;2023-03-20T09:15:16;95520.81;;;15.28;54.16
20119;BME280;10220;42.716;23.306;2023-03-20T09:17:42;95528.66;;;15.92;52.26
20119;BME280;10220;42.716;23.306;2023-03-20T09:20:08;95520.47;;;16.00;50.94
20119;BME280;10220;42.716;23.306;2023-03-20T09:22:33;95521.69;;;15.75;51.06
20119;BME280;10220;42.716;23.306;2023-03-20T09:24:59;95525.84;;;15.53;51.43
20119;BME280;10220;42.716;23.306;2023-03-20T09:27:24;95508.69;;;15.57;52.63
20119;BME280;10220;42.716;23.306;2023-03-20T09:29:50;95520.59;;;16.05;52.17
20119;BME280;10220;42.716;23.306;2023-03-20T09:32:15;95516.75;;;15.55;51.10
20119;BME280;10220;42.716;23.306;2023-03-20T09:34:41;95509.53;;;15.91;50.68
20119;BME280;10220;42.716;23.306;2023-03-20T09:37:06;95505.44;;;15.84;50.52
20119;BME280;10220;42.716;23.306;2023-03-20T09:39:32;95503.50;;;16.14;51.49
20119;BME280;10220;42.716;23.306;2023-03-20T09:42:52;95494.44;;;16.05;50.38
20119;BME280;10220;42.716;23.306;2023-03-20T09:45:11;95499.66;;;16.16;50.00
20119;BME280;10220;42.716;23.306;2023-03-20T09:47:49;95491.03;;;16.04;50.18
20119;BME280;10220;42.716;23.306;2023-03-20T09:50:37;95485.44;;;16.47;49.86
20119;BME280;10220;42.716;23.306;2023-03-20T09:53:15;95467.91;;;16.58;48.79
20119;BME280;10220;42.716;23.306;2023-03-20T09:55:42;95471.75;;;16.67;48.65
20119;BME280;10220;42.716;23.306;2023-03-20T09:58:20;95461.00;;;16.18;48.28
20119;BME280;10220;42.716;23.306;2023-03-20T10:00:47;95462.97;;;15.54;49.90
20119;BME280;10220;42.716;23.306;2023-03-20T10:06:11;95448.63;;;16.37;48.88
20119;BME280;10220;42.716;23.306;2023-03-20T10:08:37;95422.41;;;17.03;48.10
20119;BME280;10220;42.716;23.306;2023-03-20T10:13:56;95420.97;;;16.96;46.89
20119;BME280;10220;42.716;23.306;2023-03-20T10:16:28;95426.75;;;17.26;47.38
20119;BME280;10220;42.716;23.306;2023-03-20T10:19:20;95420.03;;;18.00;45.85
20119;BME280;10220;42.716;23.306;2023-03-20T10:21:50;95419.72;;;18.34;43.79
20119;BME280;10220;42.716;23.306;2023-03-20T10:26:58;95407.59;;;18.28;44.85
20119;BME280;10220;42.716;23.306;2023-03-20T10:29:41;95417.31;;;17.74;45.80
20119;BME280;10220;42.716;23.306;2023-03-20T10:40:49;95384.97;;;18.70;44.12
20119;BME280;10220;42.716;23.306;2023-03-20T10:43:25;95389.91;;;19.14;43.82
20119;BME280;10220;42.716;23.306;2023-03-20T10:46:01;95397.97;;;18.86;42.83
20119;BME280;10220;42.716;23.306;2023-03-20T10:48:33;95387.25;;;18.19;43.91
20119;BME280;10220;42.716;23.306;2023-03-20T10:51:02;95363.34;;;18.63;43.60
20119;BME280;10220;42.716;23.306;2023-03-20T10:53:46;95365.13;;;18.79;43.24
20119;BME280;10220;42.716;23.306;2023-03-20T10:56:15;95367.91;;;18.99;42.65
20119;BME280;10220;42.716;23.306;2023-03-20T10:59:02;95346.94;;;18.73;42.03
20119;BME280;10220;42.716;23.306;2023-03-20T11:01:28;95339.25;;;17.60;44.50
20119;BME280;10220;42.716;23.306;2023-03-20T11:03:54;95347.22;;;18.50;43.24
20119;BME280;10220;42.716;23.306;2023-03-20T11:06:26;95355.97;;;18.86;42.72
20119;BME280;10220;42.716;23.306;2023-03-20T11:08:53;95358.28;;;18.78;43.06
20119;BME280;10220;42.716;23.306;2023-03-20T11:11:27;95353.84;;;19.10;42.24
20119;BME280;10220;42.716;23.306;2023-03-20T11:14:09;95350.13;;;19.37;42.11
20119;BME280;10220;42.716;23.306;2023-03-20T11:16:40;95341.13;;;19.69;41.43
20119;BME280;10220;42.716;23.306;2023-03-20T11:19:07;95327.84;;;19.86;41.03
20119;BME280;10220;42.716;23.306;2023-03-20T11:21:43;95318.19;;;19.96;40.13
20119;BME280;10220;42.716;23.306;2023-03-20T11:24:40;95318.72;;;20.03;39.00
20119;BME280;10220;42.716;23.306;2023-03-20T11:27:16;95315.44;;;20.47;38.72
20119;BME280;10220;42.716;23.306;2023-03-20T11:29:45;95311.28;;;20.71;37.03
20119;BME280;10220;42.716;23.306;2023-03-20T11:32:25;95304.22;;;21.16;37.29
20119;BME280;10220;42.716;23.306;2023-03-20T11:34:52;95292.38;;;21.28;37.06
20119;BME280;10220;42.716;23.306;2023-03-20T11:37:27;95306.34;;;20.84;37.69
20119;BME280;10220;42.716;23.306;2023-03-20T11:40:14;95309.16;;;19.41;38.49
20119;BME280;10220;42.716;23.306;2023-03-20T11:42:55;95299.34;;;20.29;39.43
20119;BME280;10220;42.716;23.306;2023-03-20T11:45:21;95271.47;;;20.48;37.64
20119;BME280;10220;42.716;23.306;2023-03-20T11:47:52;95279.47;;;20.92;36.97
20119;BME280;10220;42.716;23.306;2023-03-20T11:50:42;95267.06;;;20.93;36.34
20119;BME280;10220;42.716;23.306;2023-03-20T11:56:05;95269.69;;;21.37;37.18
20119;BME280;10220;42.716;23.306;2023-03-20T11:58:33;95257.31;;;21.18;37.12
20119;BME280;10220;42.716;23.306;2023-03-20T12:01:00;95240.69;;;21.27;36.54
20119;BME280;10220;42.716;23.306;2023-03-20T12:03:39;95255.09;;;21.70;34.71
20119;BME280;10220;42.716;23.306;2023-03-20T12:06:35;95241.69;;;21.61;34.54
20119;BME280;10220;42.716;23.306;2023-03-20T12:09:17;95235.66;;;21.56;34.83
20119;BME280;10220;42.716;23.306;2023-03-20T12:11:54;95227.47;;;21.42;34.64
20119;BME280;10220;42.716;23.306;2023-03-20T12:14:34;95223.22;;;21.66;34.70
20119;BME280;10220;42.716;23.306;2023-03-20T12:19:49;95221.63;;;21.65;32.52
20119;BME280;10220;42.716;23.306;2023-03-20T12:22:33;95215.09;;;21.43;32.63
20119;BME280;10220;42.716;23.306;2023-03-20T12:25:06;95219.00;;;21.55;33.22
20119;BME280;10220;42.716;23.306;2023-03-20T12:27:39;95215.03;;;21.63;32.43
20119;BME280;10220;42.716;23.306;2023-03-20T12:30:15;95221.56;;;21.80;32.32
20119;BME280;10220;42.716;23.306;2023-03-20T12:32:55;95213.44;;;21.72;32.66
20119;BME280;10220;42.716;23.306;2023-03-20T12:35:30;95206.84;;;21.64;32.72
20119;BME280;10220;42.716;23.306;2023-03-20T12:37:56;95201.81;;;21.73;33.62
20119;BME280;10220;42.716;23.306;2023-03-20T12:40:32;95214.44;;;21.85;33.45
20119;BME280;10220;42.716;23.306;2023-03-20T12:43:09;95192.00;;;21.83;33.85
20119;BME280;10220;42.716;23.306;2023-03-20T12:45:40;95198.25;;;21.97;33.18
20119;BME280;10220;42.716;23.306;2023-03-20T12:50:58;95174.34;;;21.79;32.94
20119;BME280;10220;42.716;23.306;2023-03-20T12:53:52;95191.78;;;21.75;33.30
20119;BME280;10220;42.716;23.306;2023-03-20T12:56:23;95186.00;;;21.73;33.09
20119;BME280;10220;42.716;23.306;2023-03-20T13:02:07;95181.03;;;21.56;32.92
20119;BME280;10220;42.716;23.306;2023-03-20T13:07:20;95177.63;;;21.41;33.04
20119;BME280;10220;42.716;23.306;2023-03-20T13:10:00;95161.34;;;21.24;34.09
20119;BME280;10220;42.716;23.306;2023-03-20T13:12:48;95166.25;;;21.60;33.13
20119;BME280;10220;42.716;23.306;2023-03-20T13:18:13;95154.16;;;21.54;32.76
20119;BME280;10220;42.716;23.306;2023-03-20T13:20:50;95155.47;;;21.42;32.56
20119;BME280;10220;42.716;23.306;2023-03-20T13:23:30;95147.06;;;21.40;33.70
20119;BME280;10220;42.716;23.306;2023-03-20T13:28:44;95127.59;;;21.26;32.88
20119;BME280;10220;42.716;23.306;2023-03-20T13:34:28;95141.09;;;21.15;33.74
20119;BME280;10220;42.716;23.306;2023-03-20T13:40:04;95139.78;;;21.12;33.06
20119;BME280;10220;42.716;23.306;2023-03-20T13:42:46;95127.41;;;21.13;32.95
20119;BME280;10220;42.716;23.306;2023-03-20T13:45:26;95125.00;;;21.16;32.65
20119;BME280;10220;42.716;23.306;2023-03-20T13:48:15;95132.13;;;21.21;31.66
20119;BME280;10220;42.716;23.306;2023-03-20T13:56:03;95115.00;;;21.13;32.59
20119;BME280;10220;42.716;23.306;2023-03-20T13:58:45;95125.06;;;21.01;32.63
20119;BME280;10220;42.716;23.306;2023-03-20T14:01:39;95116.88;;;21.03;33.21
20119;BME280;10220;42.716;23.306;2023-03-20T14:04:20;95103.22;;;20.91;31.71
20119;BME280;10220;42.716;23.306;2023-03-20T14:06:55;95109.75;;;20.98;32.75
20119;BME280;10220;42.716;23.306;2023-03-20T14:09:36;95106.56;;;21.11;33.67
20119;BME280;10220;42.716;23.306;2023-03-20T14:12:11;95107.06;;;21.18;33.95
20119;BME280;10220;42.716;23.306;2023-03-20T14:14:56;95069.91;;;21.15;34.73
20119;BME280;10220;42.716;23.306;2023-03-20T14:17:29;95083.84;;;21.25;34.05
20119;BME280;10220;42.716;23.306;2023-03-20T14:19:56;95065.19;;;21.17;32.74
20119;BME280;10220;42.716;23.306;2023-03-20T14:22:43;95086.91;;;21.47;32.55
20119;BME280;10220;42.716;23.306;2023-03-20T14:25:18;95075.31;;;21.48;34.79
20119;BME280;10220;42.716;23.306;2023-03-20T14:27:59;95086.16;;;21.36;31.03
20119;BME280;10220;42.716;23.306;2023-03-20T14:35:27;95080.09;;;21.36;31.95
20119;BME280;10220;42.716;23.306;2023-03-20T14:40:37;95065.34;;;21.40;31.23